Latest Weather Observations for Cerberus

IDV60901

Issued at 5:01 am EDT Wednesday 13 November 2019 (issued every 10 minutes, with the page automatically refreshed every 10 minutes)

About weather observations | Map of Melbourne area stations | Latest observations for Melbourne area | Other Formats
Station Details ID: 086361 Name: CERBERUS Lat: -38.36 Lon: 145.18 Height: 12.69 m
Data from the previous 72 hours. | See also: Recent months at Cerberus
Date/Time
EDT
Temp
°C
App
Temp
°C
Dew
Point
°C
Rel
Hum
%
Delta-T
°C
Wind Press
QNH
hPa
Press
MSL
hPa
Rain since
9am
mm
Dir  Spd
km/h
Gust
km/h
Spd
kts
Gust
kts
13/05:00am 8.5 4.8 6.5 87 0.9 WNW 15 28 8 15 1013.4 1013.4 5.4
13/04:30am 8.4 5.1 6.4 87 0.9 WNW 13 19 7 10 1013.3 1013.3 5.2
13/04:00am 8.5 6.3 6.3 86 1.0 W 7 13 4 7 1013.9 1013.8 5.0
13/03:30am 8.4 5.4 6.2 86 1.0 WNW 11 22 6 12 1014.0 1013.9 4.8
13/03:00am 8.8 4.7 6.3 84 1.1 WNW 17 26 9 14 1014.4 1014.3 4.2
13/02:30am 8.2 5.0 5.3 82 1.3 WNW 11 20 6 11 1014.2 1014.1 4.0
13/02:00am 8.2 4.3 5.3 82 1.3 W 15 22 8 12 1014.4 1014.3 3.6
13/01:47am 8.4 3.6 5.5 82 1.3 W 20 46 11 25 1014.5 1014.4 3.6
13/01:45am 8.4 3.8 5.5 82 1.3 W 19 46 10 25 1014.6 1014.5 3.6
13/01:30am 8.1 4.9 5.2 82 1.3 WNW 11 19 6 10 1014.3 1014.2 3.4
13/01:00am 8.2 3.5 5.1 81 1.4 W 19 33 10 18 1014.7 1014.6 3.4
13/12:30am 8.4 5.2 5.2 80 1.4 WNW 11 19 6 10 1014.4 1014.3 3.2
13/12:00am 7.9 3.9 4.7 80 1.4 W 15 24 8 13 1014.3 1014.2 3.2
 
Date/Time
EDT
Temp
°C
App
Temp
°C
Dew
Point
°C
Rel
Hum
%
Delta-T
°C
Wind Press
QNH
hPa
Press
MSL
hPa
Rain since
9am
mm
Dir  Spd
km/h
Gust
km/h
Spd
kts
Gust
kts
12/11:30pm 8.2 3.5 5.0 80 1.4 W 19 32 10 17 1014.2 1014.1 3.2
12/11:00pm 8.4 3.9 4.2 75 1.8 WNW 17 26 9 14 1013.9 1013.8 2.8
12/10:30pm 8.7 3.3 4.7 76 1.8 W 22 43 12 23 1014.1 1014.0 2.6
12/10:00pm 8.8 3.8 4.8 76 1.8 WSW 20 33 11 18 1013.7 1013.6 2.6
12/09:30pm 8.4 3.1 4.8 78 1.6 W 22 37 12 20 1013.1 1013.1 2.6
12/09:00pm 9.7 4.9 4.9 72 2.2 WSW 19 37 10 20 1012.7 1012.7 2.2
12/08:30pm 9.8 4.3 4.2 68 2.5 W 22 35 12 19 1012.1 1012.1 2.2
12/08:00pm 10.3 5.0 5.1 70 2.4 WSW 22 33 12 18 1011.7 1011.7 2.2
12/07:30pm 10.8 5.5 4.9 67 2.7 WSW 22 39 12 21 1011.5 1011.5 2.2
12/07:00pm 11.0 4.6 5.1 67 2.7 W 28 44 15 24 1010.8 1010.8 2.2
12/06:30pm 10.1 5.6 6.8 80 1.6 W 20 35 11 19 1010.5 1010.5 2.2
12/06:00pm 11.4 6.4 6.3 71 2.4 WSW 22 43 12 23 1010.1 1010.1 1.8
12/05:30pm 11.9 8.4 8.7 81 1.6 WSW 17 24 9 13 1010.1 1010.1 1.8
12/05:03pm 9.8 3.7 6.5 80 1.5 WSW 28 46 15 25 1010.0 1010.0 1.8
12/05:00pm 9.7 3.1 6.2 79 1.6 WSW 30 48 16 26 1010.0 1010.0 1.6
12/04:53pm 11.2 4.9 5.9 70 2.5 WSW 28 48 15 26 1009.9 1009.9 0.8
12/04:30pm 12.9 8.6 8.0 72 2.4 WSW 20 35 11 19 1009.1 1009.1 0.4
12/04:00pm 11.9 6.9 8.0 77 1.9 WSW 24 39 13 21 1009.1 1009.1 0.4
12/03:48pm 12.4 6.2 6.0 65 3.0 WSW 28 48 15 26 1009.2 1009.2 0.0
12/03:30pm 14.6 9.6 6.4 58 4.0 WSW 22 32 12 17 1008.8 1008.8 0.0
12/03:00pm 13.9 8.7 5.5 57 4.0 WSW 22 35 12 19 1009.0 1009.0 0.0
12/02:30pm 14.3 8.6 5.1 54 4.3 WSW 24 37 13 20 1008.9 1008.9 0.0
12/02:00pm 12.9 6.6 5.6 61 3.4 WSW 28 43 15 23 1009.2 1009.2 0.0
12/01:30pm 15.4 10.3 6.2 54 4.4 WSW 22 37 12 20 1008.7 1008.7 0.0
12/01:00pm 15.8 10.5 5.1 49 5.1 WSW 22 35 12 19 1008.6 1008.6 0.0
12/12:30pm 14.9 9.2 4.9 51 4.7 SW 24 35 13 19 1008.5 1008.5 0.0
12/12:00pm 13.8 7.0 4.9 55 4.1 SW 30 43 16 23 1008.5 1008.5 0.0
12/11:32am 14.9 8.4 4.9 51 4.7 SW 28 50 15 27 1008.2 1008.2 0.0
12/11:30am 15.0 8.9 5.0 51 4.7 SW 26 43 14 23 1008.3 1008.3 0.0
12/11:00am 14.9 8.4 4.9 51 4.7 SW 28 37 15 20 1008.1 1008.1 0.0
12/10:30am 14.4 8.3 5.0 53 4.4 WSW 26 44 14 24 1007.9 1007.9 0.0
12/10:00am 12.5 7.0 5.7 63 3.2 WSW 24 39 13 21 1007.9 1007.9 0.0
12/09:30am 11.7 8.5 8.4 80 1.6 W 15 20 8 11 1007.9 1007.9 0.0
12/09:00am 12.3 9.7 7.6 73 2.3 W 11 15 6 8 1007.6 1007.6 0.0
12/08:30am 11.4 8.8 7.7 78 1.8 W 11 17 6 9 1007.1 1007.1 0.0
12/08:00am 12.7 8.6 6.3 65 3.0 WSW 17 24 9 13 1006.6 1006.6 0.0
12/07:30am 12.0 7.9 6.1 67 2.8 WSW 17 24 9 13 1006.2 1006.2 0.0
12/07:00am 12.4 7.4 6.5 67 2.8 WSW 22 35 12 19 1005.7 1005.7 0.0
12/06:30am 12.6 7.7 6.9 68 2.7 WSW 22 41 12 22 1005.5 1005.5 0.0
12/06:00am 12.7 8.3 7.4 70 2.6 SW 20 32 11 17 1004.7 1004.7 0.0
12/05:30am 12.8 7.6 7.3 69 2.7 SW 24 37 13 20 1003.9 1003.9 0.0
12/05:00am 12.8 7.5 8.3 74 2.2 SW 26 44 14 24 1003.0 1003.0 0.0
12/04:40am 13.0 7.4 8.9 76 2.1 SW 28 50 15 27 1002.5 1002.5 0.0
12/04:30am 13.1 7.7 9.4 78 1.9 SW 28 44 15 24 1002.3 1002.3 0.0
12/04:03am 13.7 8.3 10.9 83 1.5 SW 30 50 16 27 1001.2 1001.2 0.0
12/04:00am 13.7 8.3 10.9 83 1.5 SW 30 46 16 25 1001.1 1001.1 0.0
12/03:38am 14.3 9.0 11.3 82 1.6 SW 30 48 16 26 1000.8 1000.8 0.0
12/03:30am 14.2 8.5 11.0 81 1.7 SW 32 48 17 26 1000.7 1000.7 0.0
12/03:00am 14.9 9.7 10.3 74 2.4 SW 28 50 15 27 1000.2 1000.2 0.0
12/02:52am 15.7 9.9 9.6 67 3.2 SW 30 50 16 27 999.9 999.9 0.0
12/02:30am 17.2 11.9 8.4 56 4.5 SW 26 37 14 20 999.5 999.5 0.0
12/02:00am 17.9 15.5 5.2 43 6.2 W 7 11 4 6 998.3 998.3 0.0
12/01:30am 18.8 16.3 3.8 37 7.1 NW 6 7 3 4 998.6 998.6 0.0
12/01:00am 21.8 18.1 2.5 28 9.1 WNW 11 15 6 8 999.5 999.5 0.0
12/12:30am 23.1 17.6 2.0 25 9.9 WNW 20 37 11 20 1000.0 1000.0 0.0
12/12:00am 24.1 19.3 0.4 21 11.0 N 15 28 8 15 999.0 999.0 0.0
 
Date/Time
EDT
Temp
°C
App
Temp
°C
Dew
Point
°C
Rel
Hum
%
Delta-T
°C
Wind Press
QNH
hPa
Press
MSL
hPa
Rain since
9am
mm
Dir  Spd
km/h
Gust
km/h
Spd
kts
Gust
kts
11/11:30pm 24.6 19.0 0.2 20 11.2 N 19 32 10 17 999.0 999.0 0.0
11/11:00pm 24.6 19.5 0.8 21 11.1 N 17 33 9 18 999.6 999.6 0.0
11/10:30pm 24.6 19.0 1.5 22 10.9 N 20 37 11 20 999.7 999.7 0.0
11/10:00pm 24.2 19.4 2.4 24 10.5 N 17 30 9 16 1000.3 1000.3 0.0
11/09:30pm 22.4 19.1 4.5 31 8.8 N 11 19 6 10 1000.4 1000.4 0.0
11/09:00pm 19.5 18.4 10.8 57 4.8 NNE 7 13 4 7 1000.6 1000.6 0.0
11/08:30pm 21.0 19.8 9.6 48 6.1 NNE 6 7 3 4 1002.3 1002.3 0.0
11/08:00pm 20.8 20.0 11.2 54 5.3 N 6 9 3 5 1003.4 1003.4 0.0
11/07:30pm 22.0 22.2 10.5 48 6.3 CALM 0 0 0 0 1003.8 1003.8 0.0
11/07:00pm 23.9 23.3 7.5 35 8.6 CALM 0 4 0 2 1004.2 1004.2 0.0
11/06:30pm 24.6 23.3 7.7 34 8.9 NNW 4 7 2 4 1004.3 1004.3 0.0
11/06:00pm 25.2 23.8 7.3 32 9.5 NW 4 6 2 3 1004.9 1004.9 0.0
11/05:30pm 26.4 24.1 7.4 30 10.1 NW 9 19 5 10 1005.2 1005.2 0.0
11/05:00pm 26.4 24.0 6.9 29 10.3 NNW 9 17 5 9 1005.5 1005.5 0.0
11/04:30pm 26.6 22.5 6.1 27 10.7 NNW 17 30 9 16 1005.8 1005.8 0.0
11/04:00pm 27.2 22.4 5.5 25 11.2 NNW 20 35 11 19 1006.0 1006.0 0.0
11/03:30pm 27.1 22.9 7.5 29 10.5 NNW 19 35 10 19 1006.6 1006.6 0.0
11/03:00pm 25.9 20.8 6.0 28 10.3 NNW 22 35 12 19 1007.1 1007.1 0.0
11/02:30pm 25.3 20.8 7.0 31 9.6 NNW 20 35 11 19 1007.7 1007.7 0.0
11/02:00pm 24.3 19.7 5.6 30 9.5 NNW 19 32 10 17 1008.0 1008.0 0.0
11/01:30pm 24.8 20.9 7.0 32 9.3 NNW 17 37 9 20 1008.5 1008.5 0.0
11/01:00pm 24.5 19.0 5.8 30 9.6 NNW 24 41 13 22 1008.7 1008.7 0.0
11/12:30pm 23.6 20.0 8.5 38 8.0 N 17 33 9 18 1009.3 1009.3 0.0
11/12:00pm 22.4 18.8 8.5 41 7.4 N 17 30 9 16 1009.7 1009.7 0.0
11/11:30am 21.8 18.7 9.0 44 6.8 NNW 15 28 8 15 1009.8 1009.8 0.0
11/11:00am 20.6 17.7 9.8 50 5.8 NNW 15 24 8 13 1010.9 1010.9 0.0
11/10:30am 19.9 17.0 9.5 51 5.5 NNW 15 24 8 13 1011.4 1011.4 0.0
11/10:00am 18.5 14.6 8.7 53 5.1 NNW 19 33 10 18 1011.8 1011.8 0.0
11/09:30am 17.9 14.6 9.5 58 4.4 NNW 17 28 9 15 1012.0 1012.0 0.0
11/09:00am 16.8 13.7 10.2 65 3.5 NNW 17 28 9 15 1012.2 1012.2 0.2
11/08:30am 15.9 14.7 11.7 76 2.3 NNW 9 17 5 9 1012.0 1012.0 0.2
11/08:00am 14.2 12.8 12.1 87 1.1 NNW 11 20 6 11 1011.8 1011.8 0.2
11/07:30am 12.0 10.9 10.6 91 0.7 N 7 11 4 6 1011.7 1011.7 0.2
11/07:00am 10.8 9.6 9.6 92 0.6 NNW 6 9 3 5 1011.5 1011.5 0.2
11/06:30am 10.1 8.5 8.9 92 0.6 N 7 13 4 7 1010.8 1010.8 0.2
11/06:00am 10.2 8.3 9.0 92 0.6 N 9 15 5 8 1010.9 1010.9 0.0
11/05:30am 9.7 8.0 8.5 92 0.6 N 7 13 4 7 1011.0 1011.0 0.0
11/05:00am 9.5 8.4 8.3 92 0.6 N 4 6 2 3 1011.5 1011.5 0.0
11/04:30am 8.9 7.2 7.5 91 0.7 N 6 9 3 5 1011.7 1011.7 0.0
11/04:00am 9.5 8.3 8.1 91 0.7 N 4 7 2 4 1012.2 1012.2 0.0
11/03:30am 9.2 7.9 7.8 91 0.7 N 4 6 2 3 1012.5 1012.5 0.0
11/03:00am 10.2 8.8 9.0 92 0.6 N 6 9 3 5 1012.4 1012.4 0.0
11/02:30am 9.7 8.5 8.1 90 0.8 N 4 6 2 3 1012.9 1012.9 0.0
11/02:00am 10.7 9.8 9.3 91 0.7 N 4 6 2 3 1013.4 1013.4 0.0
11/01:30am 10.7 9.4 9.3 91 0.7 N 6 7 3 4 1014.2 1014.1 0.0
11/01:00am 10.4 9.0 9.0 91 0.7 SW 6 7 3 4 1014.6 1014.5 0.0
11/12:30am 10.7 9.8 9.1 90 0.8 SSW 4 6 2 3 1015.2 1015.1 0.0
11/12:00am 10.5 9.5 8.8 89 0.8 SSW 4 6 2 3 1015.7 1015.6 0.0
 
Date/Time
EDT
Temp
°C
App
Temp
°C
Dew
Point
°C
Rel
Hum
%
Delta-T
°C
Wind Press
QNH
hPa
Press
MSL
hPa
Rain since
9am
mm
Dir  Spd
km/h
Gust
km/h
Spd
kts
Gust
kts
10/11:30pm 11.6 10.9 9.9 89 0.9 SSW 4 6 2 3 1015.5 1015.4 0.0
10/11:00pm 12.0 11.7 10.1 88 1.0 SSW 2 4 1 2 1015.6 1015.5 0.0
10/10:30pm 12.2 12.0 10.3 88 1.0 SSW 2 4 1 2 1016.2 1016.1 0.0
10/10:00pm 12.2 11.8 9.9 86 1.2 SSW 2 4 1 2 1015.9 1015.8 0.0
10/09:30pm 12.4 11.7 10.0 85 1.2 SSW 4 6 2 3 1016.4 1016.3 0.0
10/09:00pm 12.7 12.4 10.1 84 1.3 SSW 2 6 1 3 1016.2 1016.1 0.0
10/08:30pm 12.9 13.0 10.1 83 1.4 CALM 0 0 0 0 1016.2 1016.1 0.0
10/08:00pm 12.9 12.2 9.9 82 1.5 SSW 4 7 2 4 1016.2 1016.1 0.0
10/07:30pm 13.2 12.1 10.0 81 1.6 SW 6 9 3 5 1016.1 1016.0 0.0
10/07:00pm 13.3 11.7 10.1 81 1.7 SW 9 13 5 7 1015.8 1015.7 0.0
10/06:30pm 13.4 10.9 9.8 79 1.8 SW 13 20 7 11 1015.7 1015.6 0.0
10/06:00pm 13.9 11.9 10.3 79 1.9 SW 11 17 6 9 1015.7 1015.6 0.0
10/05:30pm 13.8 11.4 10.2 79 1.9 SW 13 22 7 12 1015.6 1015.5 0.0
10/05:00pm 13.8 11.4 10.0 78 2.0 SSW 13 20 7 11 1015.6 1015.5 0.0
10/04:30pm 14.0 11.3 10.2 78 2.0 SSW 15 22 8 12 1015.5 1015.4 0.0
10/04:00pm 14.5 11.9 10.7 78 2.0 SW 15 22 8 12 1015.4 1015.3 0.0
10/03:30pm 14.3 11.2 10.3 77 2.1 SSW 17 28 9 15 1015.6 1015.5 0.0
10/03:00pm 14.2 11.0 9.8 75 2.3 SSW 17 26 9 14 1015.9 1015.8 0.0
10/02:30pm 14.3 11.0 9.7 74 2.4 SSW 17 24 9 13 1016.0 1015.9 0.0
10/02:00pm 14.4 11.3 10.2 76 2.2 SW 17 28 9 15 1016.1 1016.0 0.0
10/01:30pm 15.4 12.7 10.2 71 2.7 WSW 15 22 8 12 1016.1 1016.0 0.0
10/01:00pm 16.0 12.8 10.1 68 3.1 WSW 17 24 9 13 1016.1 1016.0 0.0
10/12:30pm 15.8 12.2 9.7 67 3.2 WSW 19 28 10 15 1016.3 1016.2 0.0
10/12:00pm 15.4 12.4 10.6 73 2.5 WSW 17 26 9 14 1016.5 1016.4 0.0
10/11:30am 14.2 10.5 9.4 73 2.5 W 19 28 10 15 1016.5 1016.4 0.0
10/11:00am 14.3 11.1 10.1 76 2.2 W 17 24 9 13 1016.5 1016.4 0.0
10/10:30am 13.9 10.1 9.7 76 2.2 W 20 33 11 18 1016.3 1016.2 0.0
10/10:00am 13.4 10.6 10.0 80 1.8 W 15 24 8 13 1016.2 1016.1 0.0
10/09:30am 13.2 9.7 10.2 82 1.6 W 19 32 10 17 1016.2 1016.1 0.0
10/09:00am 12.0 8.3 9.6 85 1.2 W 19 28 10 15 1016.1 1016.0 4.4
10/08:30am 12.3 8.9 9.1 81 1.6 W 17 30 9 16 1015.6 1015.5 4.4
10/08:00am 12.1 8.7 9.3 83 1.4 W 17 26 9 14 1015.2 1015.1 4.4
10/07:30am 11.7 8.7 9.4 86 1.2 W 15 20 8 11 1014.8 1014.7 4.4
10/07:00am 11.3 8.7 9.4 88 1.0 W 13 20 7 11 1014.7 1014.6 4.4
10/06:30am 11.2 8.6 9.3 88 1.0 WSW 13 19 7 10 1014.4 1014.3 4.4
10/06:00am 11.0 8.0 9.1 88 0.9 W 15 30 8 16 1014.0 1013.9 4.2
10/05:30am 11.1 7.3 9.2 88 0.9 W 19 30 10 16 1013.7 1013.6 4.2

Latest Capital City Observations: Canberra | Sydney | Melbourne | Brisbane | Adelaide | Perth | Hobart | Darwin

Other formats

Comma delimited format used in spreadsheet applications
http://www.bom.gov.au/fwo/IDV60901/IDV60901.94898.axf

JavaScript Object Notation format (JSON) in row-major order
http://www.bom.gov.au/fwo/IDV60901/IDV60901.94898.json

Data quality

Most of these data are generated automatically and are frequently updated. Quality checks on data are not normally performed. It is possible for incorrect values to appear. Refer to information at About Latest Weather Observations and please check the disclaimer before using these data.